createdAt,value
2018-07-09T00:00:08.864Z,101128.23
2018-07-09T00:02:37.358Z,101124.28
2018-07-09T00:05:05.960Z,101125.92
2018-07-09T00:07:34.410Z,101124.73
2018-07-09T00:10:02.825Z,101129.59
2018-07-09T00:12:31.331Z,101125.69
2018-07-09T00:14:59.908Z,101129.28
2018-07-09T00:17:28.367Z,101126.34
2018-07-09T00:19:56.811Z,101134.91
2018-07-09T00:22:25.385Z,101134.36
2018-07-09T00:24:53.854Z,101129.90
2018-07-09T00:27:22.356Z,101127.00
2018-07-09T00:29:50.920Z,101127.42
2018-07-09T00:32:19.744Z,101129.53
2018-07-09T00:34:48.199Z,101128.59
2018-07-09T00:37:16.690Z,101130.66
2018-07-09T00:39:45.251Z,101131.89
2018-07-09T00:42:13.680Z,101128.34
2018-07-09T00:44:42.203Z,101122.27
2018-07-09T00:47:10.699Z,101129.23
2018-07-09T00:49:39.201Z,101126.62
2018-07-09T00:52:07.666Z,101127.12
2018-07-09T00:54:36.042Z,101125.08
2018-07-09T00:57:04.578Z,101121.30
2018-07-09T00:59:33.135Z,101116.42
2018-07-09T01:02:01.646Z,101120.48
2018-07-09T01:04:30.087Z,101114.99
2018-07-09T01:06:58.575Z,101116.94
2018-07-09T01:09:27.074Z,101119.16
2018-07-09T01:12:06.560Z,101117.56
2018-07-09T01:14:35.048Z,101110.67
2018-07-09T01:17:03.561Z,101113.58
2018-07-09T01:19:32.023Z,101114.24
2018-07-09T01:22:00.567Z,101109.02
2018-07-09T01:24:29.153Z,101107.13
2018-07-09T01:26:57.726Z,101102.85
2018-07-09T01:29:26.380Z,101106.58
2018-07-09T01:31:54.964Z,101103.53
2018-07-09T01:34:23.488Z,101099.10
2018-07-09T01:36:52.004Z,101105.61
2018-07-09T01:39:20.537Z,101104.70
2018-07-09T01:41:49.020Z,101098.89
2018-07-09T01:44:17.629Z,101096.02
2018-07-09T01:46:46.164Z,101101.81
2018-07-09T01:49:14.634Z,101100.70
2018-07-09T01:51:43.162Z,101101.20
2018-07-09T01:54:11.688Z,101102.41
2018-07-09T01:56:40.180Z,101095.27
2018-07-09T01:59:08.721Z,101093.11
2018-07-09T02:01:37.346Z,101090.87
2018-07-09T02:04:05.944Z,101089.14
2018-07-09T02:06:34.653Z,101087.27
2018-07-09T02:09:05.078Z,101087.01
2018-07-09T02:11:33.543Z,101090.75
2018-07-09T02:14:02.018Z,101089.05
2018-07-09T02:16:30.395Z,101092.55
2018-07-09T02:18:58.803Z,101087.28
2018-07-09T02:21:27.450Z,101083.77
2018-07-09T02:23:56.040Z,101084.32
2018-07-09T02:26:24.713Z,101089.00
2018-07-09T02:28:53.375Z,101087.86
2018-07-09T02:31:22.132Z,101083.20
2018-07-09T02:33:50.849Z,101076.12
2018-07-09T02:36:19.327Z,101083.78
2018-07-09T02:38:47.859Z,101088.11
2018-07-09T02:41:16.332Z,101087.30
2018-07-09T02:43:44.841Z,101086.84
2018-07-09T02:46:13.312Z,101093.27
2018-07-09T02:48:41.757Z,101084.45
2018-07-09T02:51:10.187Z,101089.08
2018-07-09T02:53:38.768Z,101085.42
2018-07-09T02:56:07.348Z,101089.19
2018-07-09T02:58:35.908Z,101083.76
2018-07-09T03:01:04.564Z,101078.80
2018-07-09T03:03:32.873Z,101087.72
2018-07-09T03:06:01.334Z,101085.47
2018-07-09T03:08:29.744Z,101095.40
2018-07-09T03:10:58.217Z,101090.47
2018-07-09T03:13:26.643Z,101091.75
2018-07-09T03:15:55.147Z,101091.83
2018-07-09T03:18:23.631Z,101097.72
2018-07-09T03:20:52.067Z,101097.03
2018-07-09T03:23:20.482Z,101099.91
2018-07-09T03:25:48.900Z,101105.14
2018-07-09T03:28:17.332Z,101107.70
2018-07-09T03:30:45.807Z,101105.60
2018-07-09T03:33:14.289Z,101109.16
2018-07-09T03:35:42.860Z,101117.61
2018-07-09T03:38:11.355Z,101121.84
2018-07-09T03:40:39.877Z,101112.59
2018-07-09T03:43:08.300Z,101111.30
2018-07-09T03:45:36.776Z,101106.95
2018-07-09T03:48:05.325Z,101109.02
2018-07-09T03:50:33.863Z,101110.44
2018-07-09T03:53:02.320Z,101110.38
2018-07-09T03:55:30.758Z,101105.77
2018-07-09T03:57:59.218Z,101110.11
2018-07-09T04:00:27.698Z,101104.97
2018-07-09T04:02:56.235Z,101112.02
2018-07-09T04:05:24.664Z,101115.05
2018-07-09T04:07:53.062Z,101116.17
2018-07-09T04:10:21.537Z,101106.70
2018-07-09T04:12:50.106Z,101118.28
2018-07-09T04:15:18.711Z,101110.74
2018-07-09T04:17:47.192Z,101106.88
2018-07-09T04:20:15.714Z,101110.17
2018-07-09T04:22:44.212Z,101112.95
2018-07-09T04:25:12.674Z,101109.70
2018-07-09T04:27:41.176Z,101105.64
2018-07-09T04:30:09.603Z,101107.39
2018-07-09T04:32:38.013Z,101111.83
2018-07-09T04:35:06.512Z,101109.89
2018-07-09T04:37:35.418Z,101117.22
2018-07-09T04:40:04.127Z,101111.04
2018-07-09T04:42:32.597Z,101117.23
2018-07-09T04:45:01.007Z,101121.47
2018-07-09T04:47:29.464Z,101115.28
2018-07-09T04:49:57.950Z,101111.76
2018-07-09T04:52:26.399Z,101107.83
2018-07-09T04:54:55.075Z,101112.45
2018-07-09T04:57:23.567Z,101116.52
2018-07-09T04:59:52.044Z,101118.84
2018-07-09T05:02:20.538Z,101114.76
2018-07-09T05:04:49.060Z,101115.47
2018-07-09T05:07:17.517Z,101115.37
2018-07-09T05:09:45.978Z,101115.88
2018-07-09T05:12:14.551Z,101109.63
2018-07-09T05:14:42.998Z,101108.26
2018-07-09T05:17:11.427Z,101103.97
2018-07-09T05:19:39.999Z,101105.57
2018-07-09T05:22:08.547Z,101110.04
2018-07-09T05:24:36.980Z,101115.41
2018-07-09T05:27:05.758Z,101113.25
2018-07-09T05:29:34.194Z,101112.36
2018-07-09T05:32:02.655Z,101114.54
2018-07-09T05:34:31.201Z,101107.61
2018-07-09T05:36:59.641Z,101104.94
2018-07-09T05:39:28.163Z,101105.69
2018-07-09T05:41:56.690Z,101102.34
2018-07-09T05:44:25.529Z,101098.17
2018-07-09T05:46:54.087Z,101102.19
2018-07-09T05:49:22.848Z,101107.27
2018-07-09T05:51:51.329Z,101099.78
2018-07-09T05:54:19.748Z,101100.34
2018-07-09T05:56:48.249Z,101099.86
2018-07-09T05:59:16.695Z,101092.80
2018-07-09T06:01:45.211Z,101095.36
2018-07-09T06:04:13.698Z,101086.09
2018-07-09T06:06:42.192Z,101093.64
2018-07-09T06:09:11.170Z,101089.58
2018-07-09T06:11:39.681Z,101099.52
2018-07-09T06:14:08.151Z,101097.53
2018-07-09T06:16:36.748Z,101094.22
2018-07-09T06:19:05.387Z,101098.84
2018-07-09T06:21:33.843Z,101092.98
2018-07-09T06:24:02.470Z,101091.11
2018-07-09T06:26:30.987Z,101096.72
2018-07-09T06:28:59.459Z,101099.19
2018-07-09T06:31:27.951Z,101101.70
2018-07-09T06:33:56.404Z,101101.87
2018-07-09T06:36:24.888Z,101099.52
2018-07-09T06:38:53.325Z,101106.16
2018-07-09T06:41:21.787Z,101101.52
2018-07-09T06:43:50.290Z,101094.09
2018-07-09T06:46:18.751Z,101098.89
2018-07-09T06:48:47.298Z,101099.06
2018-07-09T06:51:15.753Z,101100.91
2018-07-09T06:53:44.216Z,101097.05
2018-07-09T06:56:12.866Z,101100.28
2018-07-09T06:58:41.352Z,101100.37
2018-07-09T07:01:09.835Z,101099.31
2018-07-09T07:03:38.275Z,101096.77
2018-07-09T07:06:06.775Z,101092.88
2018-07-09T07:08:35.192Z,101092.06
2018-07-09T07:11:03.669Z,101088.05
2018-07-09T07:13:32.137Z,101083.21
2018-07-09T07:16:00.533Z,101083.97
2018-07-09T07:18:28.944Z,101081.05
2018-07-09T07:20:57.405Z,101088.02
2018-07-09T07:23:25.819Z,101086.22
2018-07-09T07:25:54.390Z,101084.77
2018-07-09T07:28:22.963Z,101080.03
2018-07-09T07:30:51.469Z,101084.00
2018-07-09T07:33:20.017Z,101074.86
2018-07-09T07:35:48.492Z,101072.44
2018-07-09T07:38:16.989Z,101073.74
2018-07-09T07:40:45.496Z,101071.94
2018-07-09T07:43:13.915Z,101077.22
2018-07-09T07:45:42.356Z,101073.75
2018-07-09T07:48:10.893Z,101075.09
2018-07-09T07:50:39.540Z,101072.11
2018-07-09T07:53:07.852Z,101072.31
2018-07-09T07:55:36.320Z,101068.86
2018-07-09T07:58:04.806Z,101064.52
2018-07-09T08:00:33.240Z,101062.56
2018-07-09T08:03:01.785Z,101062.41
2018-07-09T08:05:30.162Z,101055.98
2018-07-09T08:07:58.646Z,101054.92
2018-07-09T08:10:27.159Z,101060.16
2018-07-09T08:15:24.206Z,101050.54
2018-07-09T08:17:52.648Z,101048.87
2018-07-09T08:20:21.073Z,101050.47
2018-07-09T08:22:49.505Z,101038.63
2018-07-09T08:25:17.986Z,101038.36
2018-07-09T08:27:46.496Z,101030.06
2018-07-09T08:30:15.164Z,101032.23
2018-07-09T08:32:43.656Z,101016.90
2018-07-09T08:35:12.089Z,101023.16
2018-07-09T08:40:39.334Z,101011.86
2018-07-09T08:43:07.889Z,101014.48
2018-07-09T08:45:36.433Z,101010.02
2018-07-09T08:48:04.837Z,101007.36
2018-07-09T08:50:33.362Z,101008.31
2018-07-09T08:53:01.807Z,101009.70
2018-07-09T08:55:30.231Z,101011.55
2018-07-09T08:57:58.707Z,101007.34
2018-07-09T09:00:27.556Z,101006.26
2018-07-09T09:02:56.045Z,101008.50
2018-07-09T09:05:24.623Z,101003.84
2018-07-09T09:07:53.149Z,101008.52
2018-07-09T09:10:21.593Z,100999.43
2018-07-09T09:12:50.108Z,100998.54
2018-07-09T09:15:18.618Z,101002.02
2018-07-09T09:17:47.252Z,100993.61
2018-07-09T09:20:15.755Z,101002.15
2018-07-09T09:22:44.278Z,100998.00
2018-07-09T09:25:12.818Z,100997.39
2018-07-09T09:27:41.421Z,100999.02
2018-07-09T09:30:09.964Z,100995.05
2018-07-09T09:32:38.390Z,101001.33
2018-07-09T09:35:06.968Z,100995.34
2018-07-09T09:37:35.529Z,100994.47
2018-07-09T09:40:04.060Z,100994.17
2018-07-09T09:42:32.588Z,101001.87
2018-07-09T09:45:01.047Z,101000.84
2018-07-09T09:47:29.527Z,100999.25
2018-07-09T09:49:58.003Z,101004.00
2018-07-09T09:52:26.425Z,101007.45
2018-07-09T09:54:55.127Z,100998.36
2018-07-09T09:57:23.677Z,100994.80
2018-07-09T09:59:52.218Z,101001.80
2018-07-09T10:02:20.719Z,101004.88
2018-07-09T10:04:49.167Z,100999.92
2018-07-09T10:07:17.702Z,100998.44
2018-07-09T10:09:46.547Z,101005.69
2018-07-09T10:12:15.089Z,100994.23
2018-07-09T10:14:43.625Z,100997.08
2018-07-09T10:17:12.087Z,100997.40
2018-07-09T10:19:41.048Z,100996.98
2018-07-09T10:22:09.619Z,100994.73
2018-07-09T10:24:38.104Z,100995.36
2018-07-09T10:27:06.818Z,100989.38
2018-07-09T10:29:35.320Z,100994.22
2018-07-09T10:32:03.836Z,100993.73
2018-07-09T10:34:32.453Z,100993.23
2018-07-09T10:37:01.606Z,100993.52
2018-07-09T10:39:30.152Z,100993.55
2018-07-09T10:41:58.665Z,100997.75
2018-07-09T10:44:27.091Z,101000.69
2018-07-09T10:46:55.576Z,100992.27
2018-07-09T10:49:24.077Z,100990.33
2018-07-09T10:51:52.653Z,100983.73
2018-07-09T10:54:21.130Z,100973.14
2018-07-09T10:56:49.700Z,100977.13
2018-07-09T10:59:18.187Z,100969.56
2018-07-09T11:01:46.667Z,100963.59
2018-07-09T11:04:15.297Z,100964.66
2018-07-09T11:06:43.734Z,100968.89
2018-07-09T11:09:12.359Z,100955.63
2018-07-09T11:11:40.778Z,100963.22
2018-07-09T11:14:09.261Z,100961.06
2018-07-09T11:16:37.858Z,100958.45
2018-07-09T11:19:06.386Z,100944.91
2018-07-09T11:21:34.834Z,100949.48
2018-07-09T11:24:03.338Z,100942.96
2018-07-09T11:26:31.794Z,100941.42
2018-07-09T11:29:00.304Z,100933.20
2018-07-09T11:31:28.833Z,100930.78
2018-07-09T11:33:57.451Z,100934.59
2018-07-09T11:36:25.993Z,100934.54
2018-07-09T11:38:54.428Z,100938.64
2018-07-09T11:41:22.886Z,100927.73
2018-07-09T11:43:51.334Z,100923.61
2018-07-09T11:46:19.741Z,100921.58
2018-07-09T11:48:48.173Z,100919.91
2018-07-09T11:51:16.695Z,100919.34
2018-07-09T11:53:45.196Z,100917.92
2018-07-09T11:56:13.737Z,100914.95
2018-07-09T11:58:42.213Z,100911.69
2018-07-09T12:01:10.664Z,100917.28
2018-07-09T12:03:39.104Z,100912.23
2018-07-09T12:06:07.674Z,100912.12
2018-07-09T12:08:36.097Z,100899.82
2018-07-09T12:11:04.528Z,100913.02
2018-07-09T12:13:33.111Z,100907.98
2018-07-09T12:16:01.558Z,100896.98
2018-07-09T12:18:30.078Z,100892.75
2018-07-09T12:20:58.570Z,100898.39
2018-07-09T12:23:26.987Z,100895.47
2018-07-09T12:25:55.479Z,100899.39
2018-07-09T12:28:24.031Z,100887.20
2018-07-09T12:30:52.600Z,100901.37
2018-07-09T12:33:21.085Z,100898.99
2018-07-09T12:35:49.582Z,100901.19
2018-07-09T12:38:18.021Z,100895.61
2018-07-09T12:40:46.626Z,100899.11
2018-07-09T12:43:15.060Z,100905.16
2018-07-09T12:45:43.489Z,100895.84
2018-07-09T12:48:11.912Z,100900.33
2018-07-09T12:50:40.470Z,100902.92
2018-07-09T12:53:09.054Z,100899.01
2018-07-09T12:55:37.476Z,100896.02
2018-07-09T12:58:06.059Z,100902.00
2018-07-09T13:00:34.542Z,100895.66
2018-07-09T13:03:03.193Z,100891.94
2018-07-09T13:05:31.867Z,100893.32
2018-07-09T13:08:00.382Z,100889.51
2018-07-09T13:10:28.855Z,100887.28
2018-07-09T13:12:57.302Z,100887.75
2018-07-09T13:15:25.792Z,100884.84
2018-07-09T13:17:54.302Z,100880.74
2018-07-09T13:20:22.771Z,100881.77
2018-07-09T13:22:51.266Z,100879.45
2018-07-09T13:25:19.874Z,100878.27
2018-07-09T13:27:48.375Z,100878.23
2018-07-09T13:30:16.851Z,100872.48
2018-07-09T13:32:45.331Z,100870.97
2018-07-09T13:35:13.838Z,100866.16
2018-07-09T13:37:42.322Z,100862.27
2018-07-09T13:40:10.814Z,100850.34
2018-07-09T13:42:39.439Z,100860.03
2018-07-09T13:45:07.951Z,100851.08
2018-07-09T13:47:36.516Z,100852.77
2018-07-09T13:50:05.101Z,100846.53
2018-07-09T13:52:33.579Z,100844.19
2018-07-09T13:55:02.107Z,100848.34
2018-07-09T13:57:30.647Z,100845.55
2018-07-09T13:59:59.158Z,100837.03
2018-07-09T14:02:27.625Z,100838.48
2018-07-09T14:04:56.078Z,100827.02
2018-07-09T14:07:24.520Z,100826.67
2018-07-09T14:09:53.023Z,100837.52
2018-07-09T14:12:21.534Z,100827.33
2018-07-09T14:14:50.054Z,100826.64
2018-07-09T14:17:18.504Z,100832.77
2018-07-09T14:20:24.529Z,100831.11
2018-07-09T14:22:52.989Z,100823.19
2018-07-09T14:25:21.493Z,100821.45
2018-07-09T14:27:50.035Z,100818.84
2018-07-09T14:30:18.795Z,100801.39
2018-07-09T14:32:47.281Z,100812.38
2018-07-09T14:35:15.738Z,100806.78
2018-07-09T14:37:44.197Z,100801.94
2018-07-09T14:40:12.600Z,100802.09
2018-07-09T14:42:41.095Z,100796.80
2018-07-09T14:45:09.537Z,100797.78
2018-07-09T14:47:38.005Z,100793.94
2018-07-09T14:50:06.701Z,100801.36
2018-07-09T14:52:35.186Z,100797.06
2018-07-09T14:55:03.664Z,100798.34
2018-07-09T14:57:32.156Z,100794.27
2018-07-09T15:00:00.638Z,100787.98
2018-07-09T15:02:29.162Z,100791.31
2018-07-09T15:04:57.606Z,100785.84
2018-07-09T15:07:26.178Z,100786.00
2018-07-09T15:09:54.617Z,100777.02
2018-07-09T15:12:23.083Z,100781.25
2018-07-09T15:14:51.578Z,100775.06
2018-07-09T15:17:20.111Z,100778.25
2018-07-09T15:19:48.716Z,100774.27
2018-07-09T15:22:17.224Z,100778.77
2018-07-09T15:24:45.774Z,100779.61
2018-07-09T15:27:14.311Z,100774.24
2018-07-09T15:29:42.900Z,100774.24
2018-07-09T15:32:20.715Z,100771.78
2018-07-09T15:34:49.173Z,100774.69
2018-07-09T15:37:17.665Z,100773.64
2018-07-09T15:39:46.275Z,100765.81
2018-07-09T15:42:14.823Z,100769.09
2018-07-09T15:44:43.312Z,100770.69
2018-07-09T15:47:11.790Z,100760.14
2018-07-09T15:49:40.893Z,100758.66
2018-07-09T15:52:09.449Z,100769.19
2018-07-09T15:54:37.903Z,100759.78
2018-07-09T15:57:06.505Z,100758.48
2018-07-09T15:59:35.007Z,100753.83
2018-07-09T16:02:03.539Z,100746.75
2018-07-09T16:04:32.023Z,100747.93
2018-07-09T16:07:00.501Z,100737.73
2018-07-09T16:09:28.919Z,100732.05
2018-07-09T16:11:57.401Z,100735.57
2018-07-09T16:14:26.053Z,100733.05
2018-07-09T16:16:54.545Z,100742.17
2018-07-09T16:19:23.025Z,100736.22
2018-07-09T16:21:51.548Z,100730.70
2018-07-09T16:24:19.982Z,100735.08
2018-07-09T16:26:48.452Z,100736.11
2018-07-09T16:29:17.013Z,100730.31
2018-07-09T16:31:45.346Z,100733.48
2018-07-09T16:34:13.768Z,100734.07
2018-07-09T16:36:42.208Z,100731.39
2018-07-09T16:39:10.716Z,100724.87
2018-07-09T16:41:39.312Z,100720.77
2018-07-09T16:44:07.794Z,100720.77
2018-07-09T16:46:36.230Z,100724.13
2018-07-09T16:49:04.754Z,100716.14
2018-07-09T16:51:33.231Z,100718.35
2018-07-09T16:54:01.724Z,100722.92
2018-07-09T16:56:30.212Z,100718.69
2018-07-09T16:58:58.772Z,100729.23
2018-07-09T17:01:27.224Z,100725.48
2018-07-09T17:03:55.669Z,100722.23
2018-07-09T17:06:24.302Z,100723.64
2018-07-09T17:08:52.820Z,100721.77
2018-07-09T17:11:21.360Z,100725.52
2018-07-09T17:13:49.890Z,100731.45
2018-07-09T17:16:18.389Z,100728.06
2018-07-09T17:18:46.908Z,100719.77
2018-07-09T17:21:15.421Z,100726.75
2018-07-09T17:23:44.062Z,100729.20
2018-07-09T17:26:12.548Z,100728.97
2018-07-09T17:28:41.127Z,100729.84
2018-07-09T17:31:09.607Z,100729.70
2018-07-09T17:33:38.082Z,100726.11
2018-07-09T17:36:06.642Z,100726.28
2018-07-09T17:38:35.112Z,100717.09
2018-07-09T17:41:03.575Z,100719.23
2018-07-09T17:43:31.995Z,100718.11
2018-07-09T17:46:00.660Z,100717.20
2018-07-09T17:48:29.146Z,100719.38
2018-07-09T17:50:57.827Z,100723.08
2018-07-09T17:53:26.315Z,100723.91
2018-07-09T17:55:54.781Z,100724.53
2018-07-09T17:58:23.384Z,100728.97
2018-07-09T18:00:51.863Z,100720.34
2018-07-09T18:03:20.415Z,100712.09
2018-07-09T18:05:49.032Z,100712.94
2018-07-09T18:08:17.497Z,100722.48
2018-07-09T18:10:46.075Z,100716.73
2018-07-09T18:13:14.577Z,100719.98
2018-07-09T18:15:43.014Z,100715.33
2018-07-09T18:18:11.496Z,100718.20
2018-07-09T18:20:39.940Z,100718.56
2018-07-09T18:23:08.433Z,100724.76
2018-07-09T18:25:36.823Z,100724.92
2018-07-09T18:28:05.293Z,100724.16
2018-07-09T18:30:33.811Z,100726.45
2018-07-09T18:33:02.352Z,100722.55
2018-07-09T18:35:30.812Z,100716.19
2018-07-09T18:37:59.815Z,100720.55
2018-07-09T18:40:28.671Z,100717.64
2018-07-09T18:42:57.149Z,100712.33
2018-07-09T18:45:25.580Z,100721.41
2018-07-09T18:47:54.079Z,100720.25
2018-07-09T18:50:22.562Z,100720.56
2018-07-09T18:52:51.063Z,100718.05
2018-07-09T18:55:19.662Z,100720.73
2018-07-09T18:57:48.247Z,100722.93
2018-07-09T19:00:16.831Z,100718.87
2018-07-09T19:02:45.706Z,100728.32
2018-07-09T19:05:14.287Z,100726.25
2018-07-09T19:07:42.789Z,100728.44
2018-07-09T19:10:11.325Z,100731.62
2018-07-09T19:12:39.820Z,100729.83
2018-07-09T19:15:09.152Z,100728.93
2018-07-09T19:17:58.904Z,100733.16
2018-07-09T19:20:38.476Z,100735.34
2018-07-09T19:23:06.767Z,100740.64
2018-07-09T19:25:35.105Z,100738.45
2018-07-09T19:28:02.927Z,100732.45
2018-07-09T19:30:30.170Z,100728.09
2018-07-09T19:32:57.385Z,100727.69
2018-07-09T19:35:24.752Z,100735.35
2018-07-09T19:37:52.501Z,100733.59
2018-07-09T19:40:19.264Z,100724.73
2018-07-09T19:42:46.500Z,100724.42
2018-07-09T19:45:13.756Z,100731.31
2018-07-09T19:47:41.025Z,100732.55
2018-07-09T19:50:08.298Z,100738.19
2018-07-09T19:52:35.556Z,100736.99
2018-07-09T19:55:02.804Z,100728.53
2018-07-09T19:57:30.057Z,100731.30
2018-07-09T19:59:57.296Z,100734.03
2018-07-09T20:02:24.606Z,100730.36
2018-07-09T20:04:51.880Z,100729.69
2018-07-09T20:10:22.096Z,100725.95
2018-07-09T20:12:54.655Z,100725.09
2018-07-09T20:15:27.153Z,100734.55
2018-07-09T20:17:54.418Z,100731.95
2018-07-09T20:20:21.680Z,100727.44
2018-07-09T20:22:48.967Z,100724.74
2018-07-09T20:25:16.239Z,100727.22
2018-07-09T20:27:43.499Z,100723.66
2018-07-09T20:30:10.769Z,100723.55
2018-07-09T20:32:38.036Z,100722.58
2018-07-09T20:35:05.317Z,100720.30
2018-07-09T20:37:32.598Z,100722.51
2018-07-09T20:39:59.909Z,100717.49
2018-07-09T20:42:27.243Z,100720.66
2018-07-09T20:44:54.800Z,100728.55
2018-07-09T20:47:22.047Z,100719.55
2018-07-09T20:49:49.360Z,100721.64
2018-07-09T20:52:16.631Z,100724.45
2018-07-09T20:54:43.892Z,100722.84
2018-07-09T20:57:11.244Z,100725.25
2018-07-09T20:59:38.500Z,100723.12
2018-07-09T21:02:05.849Z,100717.36
2018-07-09T21:04:33.432Z,100720.35
2018-07-09T21:07:02.025Z,100708.81
2018-07-09T21:09:30.204Z,100703.91
2018-07-09T21:11:57.945Z,100710.52
2018-07-09T21:14:25.211Z,100718.05
2018-07-09T21:16:52.474Z,100718.69
2018-07-09T21:19:20.687Z,100719.39
2018-07-09T21:21:47.927Z,100713.95
2018-07-09T21:24:15.207Z,100707.11
2018-07-09T21:26:42.445Z,100703.80
2018-07-09T21:29:09.809Z,100701.30
2018-07-09T21:31:37.025Z,100695.53
2018-07-09T21:34:04.285Z,100698.02
2018-07-09T21:36:31.548Z,100699.73
2018-07-09T21:38:58.810Z,100704.53
2018-07-09T21:41:26.066Z,100700.83
2018-07-09T21:43:53.315Z,100705.55
2018-07-09T21:46:20.580Z,100692.30
2018-07-09T21:48:47.854Z,100695.71
2018-07-09T21:51:15.109Z,100696.59
2018-07-09T21:53:42.388Z,100701.66
2018-07-09T21:56:09.655Z,100690.67
2018-07-09T21:58:36.962Z,100700.88
2018-07-09T22:01:04.229Z,100688.09
2018-07-09T22:03:31.465Z,100690.09
2018-07-09T22:05:58.732Z,100686.02
2018-07-09T22:08:25.971Z,100689.38
2018-07-09T22:10:53.217Z,100690.48
2018-07-09T22:13:20.480Z,100694.04
2018-07-09T22:15:47.709Z,100686.23
2018-07-09T22:18:15.008Z,100688.31
2018-07-09T22:20:42.294Z,100683.52
2018-07-09T22:23:09.571Z,100679.05
2018-07-09T22:25:36.916Z,100673.42
2018-07-09T22:28:04.246Z,100671.95
2018-07-09T22:30:32.760Z,100671.70
2018-07-09T22:33:01.220Z,100675.22
2018-07-09T22:35:29.870Z,100675.80
2018-07-09T22:37:58.317Z,100668.09
2018-07-09T22:40:26.770Z,100674.94
2018-07-09T22:42:55.270Z,100660.45
2018-07-09T22:45:23.753Z,100673.77
2018-07-09T22:47:52.229Z,100687.06
2018-07-09T22:50:20.749Z,100676.63
2018-07-09T22:52:49.271Z,100679.44
2018-07-09T22:55:28.915Z,100668.61
2018-07-09T22:57:57.398Z,100684.84
2018-07-09T23:00:25.915Z,100676.06
2018-07-09T23:03:06.301Z,100667.08
2018-07-09T23:05:34.790Z,100658.67
2018-07-09T23:08:03.321Z,100664.78
2018-07-09T23:13:15.235Z,100672.41
2018-07-09T23:15:55.190Z,100655.13
2018-07-09T23:18:39.542Z,100661.97
2018-07-09T23:21:20.109Z,100665.26
2018-07-09T23:23:47.381Z,100651.69
2018-07-09T23:26:14.616Z,100658.59
2018-07-09T23:28:41.911Z,100663.01
2018-07-09T23:31:09.162Z,100656.68
2018-07-09T23:33:36.415Z,100658.26
2018-07-09T23:36:03.723Z,100649.60
2018-07-09T23:38:30.977Z,100653.64
2018-07-09T23:40:58.236Z,100657.71
2018-07-09T23:43:25.476Z,100655.27
2018-07-09T23:45:52.728Z,100636.48
2018-07-09T23:48:20.033Z,100627.55
2018-07-09T23:50:47.387Z,100642.94
2018-07-09T23:53:14.683Z,100651.27
2018-07-09T23:55:43.642Z,100646.19
2018-07-09T23:58:22.149Z,100642.98
